Time;durP1;ratioP1;P1;durP2;ratioP2;P2;SDS_P1;SDS_P2;PMS_P1;PMS_P2;Temp;Humidity;BMP_temperature;BMP_pressure;BME280_temperature;BME280_humidity;BME280_pressure;Samples;Min_cycle;Max_cycle;Signal;HPM_P1;HPM_P2
2021/04/14 00:01:55;;;;;;;6.70;1.38;;;3.60;99.90;;;;;;3533537;40;20063;-80
2021/04/14 00:04:23;;;;;;;5.05;1.50;;;3.70;99.90;;;;;;3523533;40;20070;-81
2021/04/14 00:06:58;;;;;;;5.68;1.58;;;3.80;99.90;;;;;;3528167;40;20075;-81
2021/04/14 00:09:27;;;;;;;7.82;1.60;;;3.70;99.90;;;;;;3536898;40;20059;-81
2021/04/14 00:11:58;;;;;;;6.05;1.48;;;3.70;99.90;;;;;;3537242;40;20079;-80
2021/04/14 00:14:29;;;;;;;5.43;1.88;;;3.70;99.90;;;;;;3526114;40;20071;-80
2021/04/14 00:16:56;;;;;;;4.07;1.45;;;3.60;99.90;;;;;;3542388;40;20075;-81
2021/04/14 00:19:24;;;;;;;5.22;1.63;;;3.60;99.90;;;;;;3516498;40;20081;-80
2021/04/14 00:21:51;;;;;;;9.50;2.05;;;3.50;99.90;;;;;;3540268;40;20075;-80
2021/04/14 00:24:23;;;;;;;4.30;1.73;;;3.60;99.90;;;;;;3523245;40;20086;-81
2021/04/14 00:26:51;;;;;;;5.53;1.67;;;3.60;99.90;;;;;;3527704;40;20087;-80
2021/04/14 00:29:19;;;;;;;3.70;1.40;;;3.50;99.90;;;;;;3533833;40;20071;-81
2021/04/14 00:31:46;;;;;;;4.65;1.55;;;3.40;99.90;;;;;;3530167;40;20088;-80
2021/04/14 00:34:16;;;;;;;7.17;1.33;;;3.50;99.90;;;;;;3524351;40;20418;-81
2021/04/14 00:36:44;;;;;;;6.72;1.55;;;3.50;99.90;;;;;;3533937;40;20091;-82
2021/04/14 00:39:15;;;;;;;5.80;1.85;;;3.50;99.90;;;;;;3530016;40;20082;-80
2021/04/14 00:41:44;;;;;;;5.28;1.42;;;3.60;99.90;;;;;;3532383;40;20291;-82
2021/04/14 00:44:12;;;;;;;10.52;1.83;;;3.40;99.90;;;;;;3524755;40;20063;-80
2021/04/14 00:46:42;;;;;;;4.03;1.42;;;3.40;99.90;;;;;;3531494;40;20067;-80
2021/04/14 00:49:11;;;;;;;6.38;1.50;;;3.30;99.90;;;;;;3524959;40;20095;-80
2021/04/14 00:51:38;;;;;;;3.88;1.33;;;3.30;99.90;;;;;;3524572;40;20074;-80
2021/04/14 00:54:06;;;;;;;4.40;1.60;;;3.20;99.90;;;;;;3531978;40;20094;-80
2021/04/14 00:56:34;;;;;;;6.80;1.67;;;3.30;99.90;;;;;;3539346;40;20074;-83
2021/04/14 00:59:01;;;;;;;4.03;1.70;;;3.20;99.90;;;;;;3530689;40;20085;-81
2021/04/14 01:01:29;;;;;;;9.50;1.83;;;3.20;99.90;;;;;;3524118;40;20090;-80
2021/04/14 01:03:58;;;;;;;4.07;1.70;;;3.10;99.90;;;;;;3540108;40;20157;-81
2021/04/14 01:06:28;;;;;;;10.80;1.90;;;3.10;99.90;;;;;;3531095;40;20094;-81
2021/04/14 01:08:59;;;;;;;7.20;1.50;;;3.10;99.90;;;;;;3539593;40;20070;-81
2021/04/14 01:11:27;;;;;;;7.10;2.30;;;3.30;99.90;;;;;;3522779;40;20079;-80
2021/04/14 01:13:56;;;;;;;8.63;1.65;;;3.20;99.90;;;;;;3523098;40;20083;-80
2021/04/14 01:16:23;;;;;;;8.82;2.05;;;3.00;99.90;;;;;;3531132;40;20074;-81
2021/04/14 01:18:51;;;;;;;4.10;2.03;;;2.90;99.90;;;;;;3524294;40;20091;-80
2021/04/14 01:21:23;;;;;;;10.97;2.20;;;2.80;99.90;;;;;;3522659;40;20074;-80
2021/04/14 01:23:50;;;;;;;;;;;2.80;99.90;;;;;;3532374;40;20103;-81
2021/04/14 01:26:18;;;;;;;5.78;1.77;;;2.70;99.90;;;;;;3524611;40;20032;-80
2021/04/14 01:28:47;;;;;;;10.38;1.80;;;2.60;99.90;;;;;;3531263;40;20074;-82
2021/04/14 01:31:32;;;;;;;7.10;1.83;;;2.50;99.90;;;;;;3531333;40;20090;-81
2021/04/14 01:34:00;;;;;;;8.13;1.58;;;2.60;99.90;;;;;;3532427;40;20078;-80
2021/04/14 01:36:32;;;;;;;5.80;1.80;;;2.60;99.90;;;;;;3536236;40;20090;-80
2021/04/14 01:39:02;;;;;;;4.47;2.57;;;2.60;99.90;;;;;;3539167;40;20309;-80
2021/04/14 01:41:33;;;;;;;5.20;1.65;;;2.50;99.90;;;;;;3529578;40;20074;-80
2021/04/14 01:44:01;;;;;;;4.80;1.73;;;2.40;99.90;;;;;;3536543;40;20166;-82
2021/04/14 01:46:29;;;;;;;3.83;1.48;;;2.40;99.90;;;;;;3537766;40;20067;-80
2021/04/14 01:48:56;;;;;;;7.15;1.85;;;2.40;99.90;;;;;;3532418;40;20110;-85
2021/04/14 01:51:24;;;;;;;5.57;2.22;;;2.40;99.90;;;;;;3527766;40;20118;-80
2021/04/14 01:53:52;;;;;;;5.73;2.00;;;2.40;99.90;;;;;;3543503;40;20063;-80
2021/04/14 01:56:22;;;;;;;4.90;2.40;;;2.60;99.90;;;;;;3545373;40;20094;-80
2021/04/14 01:58:49;;;;;;;5.97;2.30;;;2.50;99.90;;;;;;3533415;40;20059;-81
2021/04/14 02:01:19;;;;;;;3.73;1.80;;;2.40;99.90;;;;;;3531470;40;20423;-81
2021/04/14 02:03:57;;;;;;;9.02;2.60;;;2.40;99.90;;;;;;3541297;40;20094;-80
2021/04/14 02:06:24;;;;;;;8.67;2.20;;;2.40;99.90;;;;;;3527696;40;20071;-83
2021/04/14 02:08:52;;;;;;;8.40;2.60;;;2.40;99.90;;;;;;3529177;40;20093;-81
2021/04/14 02:11:21;;;;;;;7.13;2.20;;;2.30;99.90;;;;;;3529242;40;20071;-80
2021/04/14 02:13:54;;;;;;;4.78;2.03;;;2.40;99.90;;;;;;3540791;40;20329;-81
2021/04/14 02:16:22;;;;;;;10.27;2.60;;;2.40;99.90;;;;;;3527392;40;20075;-81
2021/04/14 02:18:53;;;;;;;9.20;2.30;;;2.30;99.90;;;;;;3528911;40;20074;-80
2021/04/14 02:21:22;;;;;;;9.27;3.80;;;2.30;99.90;;;;;;3537387;40;20090;-80
2021/04/14 02:23:50;;;;;;;6.60;2.63;;;2.30;99.90;;;;;;3527822;40;20078;-80
2021/04/14 02:26:21;;;;;;;6.05;2.42;;;2.20;99.90;;;;;;3543185;40;20096;-80
2021/04/14 02:28:49;;;;;;;9.17;2.40;;;2.30;99.90;;;;;;3541722;40;20089;-83
2021/04/14 02:31:29;;;;;;;5.88;2.60;;;2.40;99.90;;;;;;3540939;40;20074;-80
2021/04/14 02:33:58;;;;;;;8.37;2.93;;;2.40;99.90;;;;;;3532543;40;20066;-80
2021/04/14 02:36:26;;;;;;;9.07;2.77;;;2.40;99.90;;;;;;3546130;40;20299;-80
2021/04/14 02:38:53;;;;;;;7.17;2.67;;;2.40;99.90;;;;;;3531318;40;20292;-85
2021/04/14 02:41:22;;;;;;;5.90;2.53;;;2.30;99.90;;;;;;3546246;40;20082;-80
2021/04/14 02:43:53;;;;;;;11.10;3.22;;;2.30;99.90;;;;;;3532863;40;20078;-80
2021/04/14 02:46:21;;;;;;;10.33;2.80;;;2.20;99.90;;;;;;3537154;40;20194;-81
2021/04/14 02:48:53;;;;;;;7.87;2.83;;;2.20;99.90;;;;;;3528424;40;20071;-81
2021/04/14 02:51:43;;;;;;;8.27;2.87;;;2.20;99.90;;;;;;3533715;40;20082;-80
2021/04/14 02:54:11;;;;;;;7.53;3.20;;;2.30;99.90;;;;;;3535707;40;20087;-82
2021/04/14 02:56:39;;;;;;;6.90;2.77;;;2.20;99.90;;;;;;3550870;40;20063;-80
2021/04/14 02:59:07;;;;;;;7.50;2.87;;;2.10;99.90;;;;;;3546940;40;20074;-82
2021/04/14 03:01:41;;;;;;;7.30;2.70;;;2.20;99.90;;;;;;3529985;40;20087;-80
2021/04/14 03:04:10;;;;;;;7.53;3.27;;;2.30;99.90;;;;;;3543559;40;20476;-81
2021/04/14 03:06:41;;;;;;;7.40;2.53;;;2.20;99.90;;;;;;3531978;40;20103;-81
2021/04/14 03:09:10;;;;;;;5.23;2.43;;;2.30;99.90;;;;;;3543536;40;20059;-80
2021/04/14 03:11:38;;;;;;;8.13;2.80;;;2.20;99.90;;;;;;3547439;40;20166;-81
2021/04/14 03:14:08;;;;;;;9.53;3.40;;;2.20;99.90;;;;;;3554398;40;20066;-81
2021/04/14 03:16:35;;;;;;;6.57;2.93;;;2.10;99.90;;;;;;3542689;40;20087;-81
2021/04/14 03:19:02;;;;;;;10.60;2.77;;;2.10;99.90;;;;;;3538452;40;20082;-81
2021/04/14 03:21:30;;;;;;;11.90;3.10;;;2.00;99.90;;;;;;3536281;40;20293;-80
2021/04/14 03:23:57;;;;;;;12.07;3.33;;;1.90;99.90;;;;;;3551177;40;20114;-80
2021/04/14 03:26:24;;;;;;;16.80;4.70;;;1.80;99.90;;;;;;3541700;40;20071;-81
2021/04/14 03:28:56;;;;;;;9.93;3.40;;;1.90;99.90;;;;;;3538895;40;20082;-81
2021/04/14 03:31:26;;;;;;;11.33;2.97;;;2.00;99.90;;;;;;3539869;40;20090;-80
2021/04/14 03:33:54;;;;;;;;;;;2.10;99.90;;;;;;3526599;40;20412;-81
2021/04/14 03:36:21;;;;;;;13.53;3.40;;;2.00;99.90;;;;;;3541272;40;20265;-80
2021/04/14 03:38:52;;;;;;;8.13;2.73;;;1.90;99.90;;;;;;3534334;40;20375;-82
2021/04/14 03:41:22;;;;;;;7.07;2.97;;;1.80;99.90;;;;;;3535036;40;20067;-81
2021/04/14 03:43:56;;;;;;;11.57;3.07;;;1.90;99.90;;;;;;3536256;40;20419;-81
2021/04/14 03:46:25;;;;;;;9.30;3.40;;;1.90;99.90;;;;;;3547152;40;20073;-78
2021/04/14 03:48:56;;;;;;;7.47;2.70;;;2.00;99.90;;;;;;3541040;40;20406;-81
2021/04/14 03:51:26;;;;;;;15.17;3.23;;;1.90;99.90;;;;;;3537727;40;20063;-81
2021/04/14 03:53:54;;;;;;;13.27;3.03;;;1.90;99.90;;;;;;3538626;40;20098;-81
2021/04/14 03:56:22;;;;;;;12.68;3.00;;;2.00;99.90;;;;;;3536037;40;20414;-80
2021/04/14 03:58:52;;;;;;;9.47;2.83;;;2.00;99.90;;;;;;3530538;40;20398;-80
2021/04/14 04:01:29;;;;;;;10.77;3.67;;;2.00;99.90;;;;;;3530784;40;20111;-81
2021/04/14 04:03:58;;;;;;;12.07;3.13;;;1.90;99.90;;;;;;3528720;40;20423;-79
2021/04/14 04:06:27;;;;;;;6.33;3.10;;;1.80;99.90;;;;;;3542529;40;20082;-82
2021/04/14 04:08:54;;;;;;;14.00;3.47;;;1.90;99.90;;;;;;3530116;40;20322;-81
2021/04/14 04:11:24;;;;;;;6.87;2.93;;;2.00;99.90;;;;;;3535075;40;20475;-80
2021/04/14 04:13:53;;;;;;;9.27;2.73;;;1.90;99.90;;;;;;3531850;40;20094;-80
2021/04/14 04:16:27;;;;;;;10.03;2.90;;;1.90;99.90;;;;;;3541264;40;20086;-80
2021/04/14 04:18:55;;;;;;;24.40;5.00;;;1.90;99.90;;;;;;3536120;40;20422;-80
2021/04/14 04:21:23;;;;;;;11.18;4.13;;;1.80;99.90;;;;;;3525873;40;20070;-81
2021/04/14 04:23:51;;;;;;;15.60;3.47;;;1.80;99.90;;;;;;3545797;40;20083;-81
2021/04/14 04:26:20;;;;;;;13.83;3.27;;;1.80;99.90;;;;;;3529934;40;20341;-80
2021/04/14 04:28:48;;;;;;;11.43;3.57;;;1.80;99.90;;;;;;3542505;40;20060;-81
2021/04/14 04:31:15;;;;;;;19.13;3.60;;;2.00;99.90;;;;;;3542932;40;20075;-81
2021/04/14 04:33:46;;;;;;;16.60;3.70;;;2.00;99.90;;;;;;3531244;40;20074;-80
2021/04/14 04:36:13;;;;;;;10.27;3.60;;;2.00;99.90;;;;;;3524898;40;20074;-80
2021/04/14 04:38:42;;;;;;;19.03;4.27;;;1.90;99.90;;;;;;3541132;40;20412;-80
2021/04/14 04:41:09;;;;;;;7.75;3.22;;;1.90;99.90;;;;;;3526357;40;20078;-81
2021/04/14 04:43:37;;;;;;;9.90;3.37;;;1.90;99.90;;;;;;3534063;40;20091;-81
2021/04/14 04:46:04;;;;;;;12.37;3.90;;;2.10;99.90;;;;;;3519012;40;20062;-81
2021/04/14 04:48:33;;;;;;;12.17;3.63;;;2.00;99.90;;;;;;3533010;40;20066;-81
2021/04/14 04:51:01;;;;;;;12.75;4.07;;;2.00;99.90;;;;;;3531984;40;20099;-81
2021/04/14 04:53:31;;;;;;;10.40;3.40;;;1.90;99.90;;;;;;3534677;40;20066;-81
2021/04/14 04:56:03;;;;;;;9.90;3.30;;;2.00;99.90;;;;;;3515585;40;20055;-80
2021/04/14 04:58:37;;;;;;;15.83;3.50;;;2.10;99.90;;;;;;3532026;40;20059;-81
2021/04/14 05:01:07;;;;;;;17.53;3.10;;;2.10;99.90;;;;;;3526133;40;20342;-80
2021/04/14 05:03:36;;;;;;;11.77;3.67;;;2.30;99.90;;;;;;3514437;40;20086;-81
2021/04/14 05:06:12;;;;;;;9.77;3.37;;;2.30;99.90;;;;;;3523851;40;20090;-81
2021/04/14 05:08:44;;;;;;;11.97;3.57;;;2.30;99.90;;;;;;3542485;40;20100;-80
2021/04/14 05:11:11;;;;;;;8.83;3.40;;;2.20;99.90;;;;;;3521720;40;20083;-80
2021/04/14 05:13:40;;;;;;;9.25;3.63;;;2.10;99.90;;;;;;3534154;40;20082;-80
2021/04/14 05:16:08;;;;;;;11.87;3.70;;;2.10;99.90;;;;;;3536209;40;20302;-79
2021/04/14 05:18:35;;;;;;;12.50;4.20;;;2.10;99.90;;;;;;3515193;40;20389;-80
2021/04/14 05:21:03;;;;;;;10.47;3.53;;;2.10;99.90;;;;;;3534029;40;20090;-81
2021/04/14 05:23:32;;;;;;;12.35;3.60;;;2.10;99.90;;;;;;3520325;40;20071;-80
2021/04/14 05:26:02;;;;;;;8.43;2.87;;;2.10;99.90;;;;;;3528283;40;20387;-81
2021/04/14 05:28:29;;;;;;;14.63;3.93;;;2.20;99.90;;;;;;3527194;40;20091;-81
2021/04/14 05:31:03;;;;;;;13.33;3.33;;;2.20;99.90;;;;;;3519417;40;20063;-85
2021/04/14 05:33:33;;;;;;;9.77;3.97;;;2.20;99.90;;;;;;3527668;40;20060;-79
2021/04/14 05:36:03;;;;;;;15.87;3.73;;;2.40;99.90;;;;;;3540139;40;20078;-81
2021/04/14 05:38:35;;;;;;;11.00;4.00;;;2.50;99.90;;;;;;3552039;40;20070;-81
2021/04/14 05:41:02;;;;;;;12.88;3.85;;;2.70;99.90;;;;;;3544450;40;20107;-85
2021/04/14 05:43:35;;;;;;;11.30;3.50;;;2.80;99.90;;;;;;3554660;40;20054;-80
2021/04/14 05:46:07;;;;;;;12.83;3.70;;;2.80;99.90;;;;;;3547261;40;20133;-80
2021/04/14 05:48:36;;;;;;;10.13;3.75;;;2.80;99.90;;;;;;3545033;40;20325;-80
2021/04/14 05:51:06;;;;;;;9.33;3.60;;;2.80;99.90;;;;;;3537941;40;20075;-81
2021/04/14 05:53:37;;;;;;;11.40;4.10;;;2.90;99.90;;;;;;3555069;40;20067;-80
2021/04/14 05:56:09;;;;;;;11.00;3.40;;;3.30;99.90;;;;;;3541387;40;20300;-81
2021/04/14 05:58:38;;;;;;;12.07;3.87;;;3.50;99.90;;;;;;3547114;40;20086;-80
2021/04/14 06:01:11;;;;;;;15.17;3.77;;;3.80;99.90;;;;;;3547077;40;20101;-80
2021/04/14 06:03:38;;;;;;;11.40;4.13;;;4.10;99.90;;;;;;3537837;40;20062;-80
2021/04/14 06:06:05;;;;;;;14.57;3.70;;;4.30;99.90;;;;;;3548531;40;20086;-80
2021/04/14 06:08:33;;;;;;;14.97;3.77;;;4.40;99.90;;;;;;3549738;40;20078;-80
2021/04/14 06:11:04;;;;;;;10.17;3.80;;;4.40;99.90;;;;;;3556030;40;20083;-80
2021/04/14 06:13:33;;;;;;;9.90;3.57;;;4.40;99.90;;;;;;3546063;40;20058;-83
2021/04/14 06:16:04;;;;;;;9.77;3.90;;;4.50;99.90;;;;;;3537420;40;20074;-81
2021/04/14 06:18:43;;;;;;;10.60;3.60;;;4.50;99.90;;;;;;3521802;40;20058;-80
2021/04/14 06:21:16;;;;;;;14.10;4.10;;;4.50;99.90;;;;;;3537210;40;20370;-81
2021/04/14 06:23:46;;;;;;;8.73;3.17;;;4.60;99.90;;;;;;3535707;40;20067;-81
2021/04/14 06:26:23;;;;;;;13.98;3.47;;;4.60;99.90;;;;;;3553644;40;20070;-81
2021/04/14 06:28:52;;;;;;;25.90;5.03;;;4.60;99.90;;;;;;3536690;40;20079;-80
2021/04/14 06:31:28;;;;;;;14.88;4.15;;;4.70;99.90;;;;;;3536029;40;20090;-80
2021/04/14 06:33:57;;;;;;;10.95;3.17;;;4.90;99.90;;;;;;3551959;40;20059;-80
2021/04/14 06:36:27;;;;;;;12.07;3.20;;;5.00;99.90;;;;;;3537363;40;20079;-79
2021/04/14 06:38:55;;;;;;;11.88;3.25;;;5.10;99.90;;;;;;3538567;40;20108;-79
2021/04/14 06:41:54;;;;;;;22.77;3.50;;;5.30;99.90;;;;;;3550429;40;20066;-80
2021/04/14 06:44:52;;;;;;;15.63;3.03;;;5.40;99.90;;;;;;3538976;40;20074;-83
2021/04/14 06:47:31;;;;;;;8.85;3.05;;;5.60;99.90;;;;;;3519649;40;20098;-85
2021/04/14 06:50:06;;;;;;;10.40;3.33;;;5.50;99.90;;;;;;3538099;40;20074;-81
2021/04/14 06:52:47;;;;;;;14.82;3.45;;;5.50;99.90;;;;;;3543644;40;20539;-81
2021/04/14 06:55:25;;;;;;;16.42;4.22;;;5.60;99.90;;;;;;3540975;40;20468;-81
2021/04/14 06:57:56;;;;;;;12.38;2.75;;;5.90;99.90;;;;;;3549697;40;20067;-80
2021/04/14 07:00:26;;;;;;;11.48;3.13;;;6.00;99.90;;;;;;3545694;40;20078;-79
2021/04/14 07:03:00;;;;;;;8.73;2.58;;;6.10;99.90;;;;;;3541245;40;20071;-79
2021/04/14 07:05:34;;;;;;;9.25;2.72;;;6.20;99.90;;;;;;3551894;40;20071;-80
2021/04/14 07:08:06;;;;;;;10.70;3.08;;;6.30;99.90;;;;;;3538711;40;20078;-81
2021/04/14 07:10:36;;;;;;;11.80;3.00;;;6.50;99.90;;;;;;3539354;40;20075;-81
2021/04/14 07:13:12;;;;;;;8.77;2.17;;;6.50;99.90;;;;;;3536623;40;20099;-81
2021/04/14 07:15:52;;;;;;;14.57;3.40;;;6.50;99.90;;;;;;3539665;40;20063;-81
2021/04/14 07:18:30;;;;;;;14.38;3.10;;;6.70;99.90;;;;;;3538468;40;20307;-81
2021/04/14 07:21:06;;;;;;;13.73;3.08;;;6.70;99.90;;;;;;3544596;40;20086;-80
2021/04/14 07:23:43;;;;;;;13.43;2.78;;;6.70;99.90;;;;;;3539164;40;20063;-81
2021/04/14 07:26:19;;;;;;;14.45;2.70;;;6.90;99.90;;;;;;3530714;40;20407;-80
2021/04/14 07:29:06;;;;;;;14.35;3.28;;;7.10;99.90;;;;;;3548817;40;20082;-81
2021/04/14 07:31:39;;;;;;;24.95;6.63;;;7.20;99.90;;;;;;3540706;40;20075;-81
2021/04/14 07:34:24;;;;;;;19.58;4.68;;;7.30;99.90;;;;;;3543415;40;20303;-80
2021/04/14 07:36:57;;;;;;;12.20;3.10;;;7.50;99.90;;;;;;3534476;40;20079;-81
2021/04/14 07:39:30;;;;;;;14.20;2.88;;;7.60;99.90;;;;;;3535740;40;20067;-81
2021/04/14 07:42:12;;;;;;;11.65;3.15;;;7.70;99.90;;;;;;3537190;40;20087;-80
2021/04/14 07:44:50;;;;;;;14.38;3.13;;;7.90;99.90;;;;;;3536652;40;20079;-81
2021/04/14 07:47:20;;;;;;;20.65;3.85;;;8.10;99.90;;;;;;3525426;40;20086;-81
2021/04/14 07:49:47;;;;;;;9.65;2.67;;;8.10;99.90;;;;;;3525808;40;20091;-81
2021/04/14 07:52:21;;;;;;;10.05;3.22;;;8.10;99.50;;;;;;3541152;40;20070;-81
2021/04/14 07:54:50;;;;;;;13.80;2.95;;;8.10;98.80;;;;;;3524471;40;20083;-82
2021/04/14 07:57:34;;;;;;;16.30;2.45;;;8.00;99.00;;;;;;3534987;40;20071;-79
2021/04/14 08:00:13;;;;;;;16.75;2.65;;;7.60;99.70;;;;;;3535523;40;20090;-81
2021/04/14 08:02:44;;;;;;;14.27;2.95;;;7.50;99.90;;;;;;3525923;40;20095;-81
2021/04/14 08:05:26;;;;;;;10.77;2.72;;;7.70;99.90;;;;;;3532419;40;20067;-80
2021/04/14 08:07:55;;;;;;;9.95;3.05;;;7.90;99.50;;;;;;3533961;40;20082;-81
2021/04/14 08:10:24;;;;;;;;;;;7.80;99.20;;;;;;3534049;40;20067;-80
2021/04/14 08:13:01;;;;;;;12.02;2.20;;;7.70;99.10;;;;;;3524631;40;19974;-81
2021/04/14 08:15:35;;;;;;;6.40;2.03;;;7.90;99.10;;;;;;3525350;40;20087;-81
2021/04/14 08:18:12;;;;;;;7.10;2.47;;;8.30;97.10;;;;;;3532076;40;20071;-81
2021/04/14 08:20:44;;;;;;;9.90;2.55;;;8.40;95.90;;;;;;3515500;40;20090;-80
2021/04/14 08:23:14;;;;;;;13.55;2.38;;;8.50;95.40;;;;;;3540455;40;20306;-80
2021/04/14 08:25:44;;;;;;;23.25;3.22;;;8.40;95.70;;;;;;3534352;40;20070;-81
2021/04/14 08:28:28;;;;;;;13.63;2.55;;;8.30;96.90;;;;;;3536050;40;20079;-80
2021/04/14 08:31:07;;;;;;;6.80;2.28;;;8.10;95.50;;;;;;3536229;40;20086;-80
2021/04/14 08:33:38;;;;;;;11.63;2.38;;;8.30;95.00;;;;;;3543361;40;20076;-81
2021/04/14 08:36:23;;;;;;;12.13;2.25;;;8.40;94.40;;;;;;3530574;40;20079;-81
2021/04/14 08:38:54;;;;;;;8.07;2.65;;;8.30;93.90;;;;;;3536289;40;20074;-81
2021/04/14 08:41:28;;;;;;;15.68;3.13;;;8.30;93.60;;;;;;3544093;40;20075;-80
2021/04/14 08:44:07;;;;;;;11.00;2.40;;;8.30;93.00;;;;;;3544925;40;20090;-80
2021/04/14 08:46:38;;;;;;;12.20;2.88;;;8.30;92.40;;;;;;3534858;40;20078;-81
2021/04/14 08:49:10;;;;;;;6.72;2.55;;;8.30;93.10;;;;;;3529492;40;20359;-81
2021/04/14 08:51:40;;;;;;;7.90;2.22;;;8.20;92.30;;;;;;3537710;40;20071;-83
2021/04/14 08:54:10;;;;;;;14.00;2.63;;;8.30;90.80;;;;;;3533132;40;20055;-83
2021/04/14 08:56:43;;;;;;;8.32;2.75;;;8.50;90.30;;;;;;3532740;40;20039;-82
2021/04/14 08:59:13;;;;;;;8.30;2.40;;;8.80;90.20;;;;;;3527398;40;20071;-84
2021/04/14 09:01:41;;;;;;;7.88;2.42;;;8.90;87.70;;;;;;3542204;40;20086;-81
2021/04/14 09:04:11;;;;;;;14.30;2.38;;;9.00;86.10;;;;;;3541602;40;20070;-82
2021/04/14 09:06:40;;;;;;;9.60;2.67;;;8.90;87.40;;;;;;3539037;40;20081;-80
2021/04/14 09:09:19;;;;;;;7.78;2.78;;;9.10;87.30;;;;;;3537466;40;20067;-81
2021/04/14 09:12:02;;;;;;;8.13;2.03;;;9.20;86.80;;;;;;3541767;40;20064;-82
2021/04/14 09:14:36;;;;;;;22.02;2.83;;;9.50;84.50;;;;;;3528586;40;20071;-82
2021/04/14 09:17:06;;;;;;;20.13;3.22;;;9.60;85.00;;;;;;3526744;40;20086;-82
2021/04/14 09:19:36;;;;;;;15.80;3.65;;;9.50;84.60;;;;;;3538577;40;20283;-81
2021/04/14 09:22:17;;;;;;;16.35;3.63;;;9.30;86.50;;;;;;3541634;40;20090;-81
2021/04/14 09:24:49;;;;;;;11.55;3.58;;;9.10;87.10;;;;;;3535492;40;20072;-81
2021/04/14 09:27:25;;;;;;;11.70;2.40;;;8.90;88.70;;;;;;3533977;40;20572;-82
2021/04/14 09:30:15;;;;;;;10.63;3.67;;;8.80;86.30;;;;;;3527271;40;20102;-81
2021/04/14 09:32:54;;;;;;;18.13;2.17;;;9.10;84.30;;;;;;3525389;40;20071;-81
2021/04/14 09:35:43;;;;;;;12.88;2.05;;;9.30;80.00;;;;;;3525130;40;20071;-84
2021/04/14 09:38:26;;;;;;;7.43;1.70;;;9.40;76.00;;;;;;3527611;40;20090;-80
2021/04/14 09:41:08;;;;;;;10.85;2.17;;;9.40;77.40;;;;;;3519070;40;20063;-81
2021/04/14 09:43:44;;;;;;;15.73;3.35;;;9.00;82.50;;;;;;3527937;40;20382;-81
2021/04/14 09:46:28;;;;;;;9.63;2.08;;;8.80;85.50;;;;;;3543221;40;20071;-81
2021/04/14 09:49:07;;;;;;;13.68;2.72;;;8.70;87.70;;;;;;3524950;40;20071;-81
2021/04/14 09:51:38;;;;;;;10.27;4.10;;;8.80;86.10;;;;;;3530671;40;20391;-82
2021/04/14 09:54:12;;;;;;;9.05;1.50;;;9.20;85.80;;;;;;3527506;40;20066;-82
2021/04/14 09:56:47;;;;;;;11.10;2.55;;;9.40;79.60;;;;;;3527536;40;20071;-81
2021/04/14 09:59:21;;;;;;;16.15;1.90;;;9.70;76.00;;;;;;3532945;40;20296;-80
2021/04/14 10:02:00;;;;;;;12.77;1.63;;;10.10;74.30;;;;;;3533198;40;20091;-81
2021/04/14 10:04:33;;;;;;;6.13;1.63;;;10.50;72.40;;;;;;3529517;40;20087;-82
2021/04/14 10:07:03;;;;;;;5.93;2.00;;;10.80;68.80;;;;;;3515335;40;20091;-83
2021/04/14 10:09:36;;;;;;;6.20;1.40;;;11.50;65.20;;;;;;3537806;40;20070;-81
2021/04/14 10:12:12;;;;;;;6.97;2.50;;;12.10;62.70;;;;;;3536073;40;20399;-83
2021/04/14 10:14:44;;;;;;;10.18;1.92;;;12.90;60.30;;;;;;3525842;40;20067;-81
2021/04/14 10:17:12;;;;;;;5.75;1.55;;;13.70;59.10;;;;;;3531002;40;20095;-82
2021/04/14 10:19:39;;;;;;;6.07;1.63;;;14.50;55.70;;;;;;3527851;40;20062;-81
2021/04/14 10:22:15;;;;;;;8.43;2.03;;;15.40;52.90;;;;;;3521140;40;20070;-81
2021/04/14 10:24:44;;;;;;;7.32;1.80;;;15.00;50.60;;;;;;3520769;40;20123;-81
2021/04/14 10:27:17;;;;;;;10.02;2.80;;;15.20;49.50;;;;;;3539435;40;20078;-81
2021/04/14 10:29:45;;;;;;;6.50;2.83;;;16.20;48.20;;;;;;3528033;40;20442;-83
2021/04/14 10:32:23;;;;;;;7.20;1.88;;;16.30;47.40;;;;;;3529558;40;20402;-81
2021/04/14 10:34:54;;;;;;;9.23;2.20;;;15.10;50.10;;;;;;3525264;40;20075;-80
2021/04/14 10:37:27;;;;;;;6.80;1.98;;;13.70;53.70;;;;;;3539792;40;20094;-81
2021/04/14 10:40:09;;;;;;;7.28;2.38;;;12.30;56.60;;;;;;3542205;40;20067;-80
2021/04/14 10:42:36;;;;;;;8.55;2.05;;;11.60;58.30;;;;;;3522961;40;20070;-80
2021/04/14 10:45:07;;;;;;;6.45;2.65;;;11.10;59.40;;;;;;3526248;40;20070;-80
2021/04/14 10:47:41;;;;;;;9.52;2.40;;;11.00;60.20;;;;;;3535547;40;20298;-81
2021/04/14 10:50:33;;;;;;;13.65;2.60;;;10.90;58.60;;;;;;3524965;40;20070;-81
2021/04/14 10:53:03;;;;;;;5.53;1.45;;;11.60;56.10;;;;;;3528573;40;20086;-79
2021/04/14 10:55:35;;;;;;;5.32;2.03;;;12.80;53.70;;;;;;3531749;40;20437;-83
2021/04/14 10:58:06;;;;;;;5.78;1.42;;;14.30;52.10;;;;;;3529914;40;20086;-80
2021/04/14 11:00:36;;;;;;;11.48;2.70;;;15.90;49.20;;;;;;3541339;40;20086;-81
2021/04/14 11:03:08;;;;;;;7.75;2.17;;;17.60;45.30;;;;;;3524617;40;20086;-81
2021/04/14 11:05:38;;;;;;;6.35;1.50;;;18.60;42.50;;;;;;3532637;40;20110;-79
2021/04/14 11:08:09;;;;;;;4.93;1.80;;;19.30;40.60;;;;;;3530811;40;20129;-84
2021/04/14 11:10:40;;;;;;;5.47;1.60;;;18.80;40.50;;;;;;3531609;40;20376;-85
2021/04/14 11:13:14;;;;;;;8.90;2.72;;;18.20;41.10;;;;;;3530384;40;20067;-84
2021/04/14 11:15:45;;;;;;;5.32;1.88;;;17.80;40.90;;;;;;3524722;40;20098;-84
2021/04/14 11:18:15;;;;;;;7.03;1.95;;;18.00;40.40;;;;;;3531265;40;20123;-83
2021/04/14 11:20:49;;;;;;;7.20;1.63;;;19.20;39.40;;;;;;3530799;40;20270;-81
2021/04/14 11:23:21;;;;;;;4.65;1.63;;;20.90;37.10;;;;;;3524140;40;20162;-80
2021/04/14 11:25:50;;;;;;;9.63;1.58;;;21.70;35.40;;;;;;3524594;40;20071;-82
2021/04/14 11:28:21;;;;;;;6.47;2.38;;;21.10;34.50;;;;;;3540191;40;20075;-82
2021/04/14 11:30:52;;;;;;;19.50;6.03;;;20.30;34.70;;;;;;3521644;40;20098;-83
2021/04/14 11:33:36;;;;;;;5.82;1.90;;;19.80;36.70;;;;;;3518073;40;20327;-81
2021/04/14 11:36:04;;;;;;;4.22;1.20;;;20.90;34.80;;;;;;3523476;40;20117;-82
2021/04/14 11:38:39;;;;;;;8.40;2.53;;;21.30;31.80;;;;;;3528790;40;20394;-83
2021/04/14 11:41:25;;;;;;;7.93;1.60;;;20.60;32.80;;;;;;3531153;40;20387;-82
2021/04/14 11:43:53;;;;;;;4.82;1.13;;;21.10;33.20;;;;;;3537289;40;20065;-82
2021/04/14 11:46:28;;;;;;;3.47;1.25;;;21.70;33.90;;;;;;3545624;40;20083;-79
2021/04/14 11:48:59;;;;;;;8.07;2.50;;;22.20;31.50;;;;;;3549277;40;20093;-80
2021/04/14 11:51:32;;;;;;;7.72;1.60;;;22.60;32.00;;;;;;3532483;40;20075;-80
2021/04/14 11:54:02;;;;;;;10.70;1.80;;;21.80;32.10;;;;;;3527528;40;20079;-83
2021/04/14 11:56:43;;;;;;;15.55;6.47;;;19.70;33.10;;;;;;3537360;40;20101;-82
2021/04/14 11:59:25;;;;;;;10.77;3.28;;;17.90;35.70;;;;;;3545833;40;20074;-83
2021/04/14 12:01:57;;;;;;;15.95;3.85;;;16.70;36.50;;;;;;3532789;40;20098;-86
2021/04/14 12:04:25;;;;;;;8.05;3.97;;;18.00;36.70;;;;;;3524951;40;20421;-79
2021/04/14 12:06:53;;;;;;;8.50;2.63;;;18.70;36.60;;;;;;3533171;40;20062;-83
2021/04/14 12:09:21;;;;;;;11.20;3.75;;;17.90;40.10;;;;;;3539979;40;20645;-82
2021/04/14 12:12:04;;;;;;;5.88;1.58;;;16.40;41.90;;;;;;3529641;40;20079;-81
2021/04/14 12:14:34;;;;;;;12.02;2.58;;;15.20;44.60;;;;;;3534046;40;20090;-84
2021/04/14 12:17:02;;;;;;;14.95;2.08;;;14.20;45.10;;;;;;3546754;40;20150;-83
2021/04/14 12:19:31;;;;;;;9.52;3.22;;;13.50;46.30;;;;;;3546737;40;20311;-82
2021/04/14 12:21:59;;;;;;;8.35;1.58;;;13.10;47.00;;;;;;3543887;40;20062;-82
2021/04/14 12:24:29;;;;;;;10.88;1.90;;;12.40;46.00;;;;;;3536649;40;20086;-84
2021/04/14 12:26:58;;;;;;;12.75;1.70;;;12.30;46.30;;;;;;3535612;40;20066;-82
2021/04/14 12:29:25;;;;;;;8.65;2.17;;;13.10;45.70;;;;;;3540469;40;20086;-85
2021/04/14 12:31:54;;;;;;;;;;;15.50;43.00;;;;;;3539680;40;20381;-82
2021/04/14 12:34:22;;;;;;;4.97;1.52;;;18.20;38.40;;;;;;3532233;40;19966;-81
2021/04/14 12:36:51;;;;;;;5.20;1.10;;;20.40;34.40;;;;;;3539261;40;20074;-84
2021/04/14 12:39:19;;;;;;;5.57;1.50;;;20.90;32.00;;;;;;3538749;40;20086;-84
2021/04/14 12:41:46;;;;;;;6.00;2.00;;;19.70;33.30;;;;;;3530993;40;20061;-82
2021/04/14 12:44:14;;;;;;;5.43;1.42;;;18.40;35.50;;;;;;3538306;40;20398;-86
2021/04/14 12:46:43;;;;;;;10.05;2.58;;;16.90;37.50;;;;;;3534850;40;20086;-84
2021/04/14 12:49:21;;;;;;;10.30;2.95;;;15.50;39.10;;;;;;3539745;40;20090;-84
2021/04/14 12:51:53;;;;;;;3.53;1.40;;;14.40;39.80;;;;;;3545925;40;20037;-84
2021/04/14 12:54:31;;;;;;;6.05;1.63;;;14.00;41.10;;;;;;3539216;40;20357;-85
2021/04/14 12:57:01;;;;;;;14.13;1.75;;;15.10;41.00;;;;;;3540660;40;20074;-85
2021/04/14 12:59:31;;;;;;;9.30;2.67;;;16.70;37.60;;;;;;3544262;40;20086;-87
2021/04/14 13:02:05;;;;;;;4.20;1.20;;;18.40;36.20;;;;;;3528378;40;20405;-85
2021/04/14 13:04:44;;;;;;;11.85;2.00;;;19.60;33.70;;;;;;3540726;40;20066;-84
2021/04/14 13:07:20;;;;;;;4.05;1.50;;;18.90;34.00;;;;;;3537458;40;20419;-87
2021/04/14 13:09:51;;;;;;;5.05;1.38;;;17.50;36.00;;;;;;3545011;40;20075;-83
2021/04/14 13:12:25;;;;;;;5.00;1.40;;;16.10;37.20;;;;;;3550017;40;20386;-86
2021/04/14 13:14:56;;;;;;;8.00;3.22;;;15.30;37.90;;;;;;3553253;40;20069;-83